Goring, United Kingdom
Current Conditions -  °F | °C
As of 9:50 AM on Saturday 22 Nov 2014 (Local Time) from EGUB Reporting Station
Drizzle Drizzle  
Wind Chill: 55°   Ceiling: 3000
Heat Index: 55°   Visibility: 2.1mi
Dew Point: 55°   Wind: 10mph
Humidity: 100%   Direction: 140°SE
Pressure: 29.88"   Gusts: NA
Location:  51.52°N, 1.13°W
Report Text: EGUB 220950Z 14009KT 3500 -DZ SCT006 SCT015 BKN030 13/13 Q1012 YLO1 TEMPO 2000 DZ YLO2
Loading
Personal Weather Stations






























Interactive Weather Map New forecast layout! Learn more

10-Day Weather Forecast

Advertisements
Track Severe Weather on mobile